createdAt,value
2022-12-03T00:00:13.043Z,1005.79
2022-12-03T00:01:11.250Z,1005.79
2022-12-03T00:02:11.462Z,1005.78
2022-12-03T00:03:11.529Z,1005.80
2022-12-03T00:04:11.543Z,1005.82
2022-12-03T00:05:11.604Z,1005.80
2022-12-03T00:06:11.709Z,1005.83
2022-12-03T00:07:11.797Z,1005.76
2022-12-03T00:08:11.954Z,1005.82
2022-12-03T00:09:11.984Z,1005.81
2022-12-03T00:10:12.063Z,1005.80
2022-12-03T00:11:12.146Z,1005.81
2022-12-03T00:12:12.216Z,1005.79
2022-12-03T00:13:12.291Z,1005.81
2022-12-03T00:14:12.407Z,1005.78
2022-12-03T00:15:12.490Z,1005.79
2022-12-03T00:16:12.602Z,1005.78
2022-12-03T00:17:12.648Z,1005.76
2022-12-03T00:18:12.750Z,1005.81
2022-12-03T00:19:12.816Z,1005.77
2022-12-03T00:20:12.895Z,1005.80
2022-12-03T00:21:12.971Z,1005.77
2022-12-03T00:22:13.043Z,1005.77
2022-12-03T00:23:13.113Z,1005.77
2022-12-03T00:24:13.231Z,1005.74
2022-12-03T00:25:13.292Z,1005.72
2022-12-03T00:26:13.365Z,1005.73
2022-12-03T00:27:13.443Z,1005.69
2022-12-03T00:28:13.544Z,1005.65
2022-12-03T00:29:13.632Z,1005.66
2022-12-03T00:30:13.713Z,1005.64
2022-12-03T00:31:13.892Z,1005.66
2022-12-03T00:32:13.865Z,1005.66
2022-12-03T00:33:13.938Z,1005.65
2022-12-03T00:34:14.033Z,1005.62
2022-12-03T00:35:14.107Z,1005.64
2022-12-03T00:36:14.195Z,1005.64
2022-12-03T00:37:14.255Z,1005.66
2022-12-03T00:38:14.360Z,1005.66
2022-12-03T00:39:14.463Z,1005.66
2022-12-03T00:40:14.552Z,1005.62
2022-12-03T00:41:14.633Z,1005.56
2022-12-03T00:42:14.699Z,1005.61
2022-12-03T00:43:14.804Z,1005.59
2022-12-03T00:44:14.889Z,1005.54
2022-12-03T00:45:14.927Z,1005.56
2022-12-03T00:46:19.832Z,1005.53
2022-12-03T00:47:15.118Z,1005.58
2022-12-03T00:48:15.186Z,1005.54
2022-12-03T00:49:15.259Z,1005.52
2022-12-03T00:50:15.331Z,1005.56
2022-12-03T00:51:15.417Z,1005.53
2022-12-03T00:52:15.482Z,1005.52
2022-12-03T00:53:15.563Z,1005.54
2022-12-03T00:54:15.674Z,1005.52
2022-12-03T00:55:15.717Z,1005.50
2022-12-03T00:56:15.804Z,1005.51
2022-12-03T00:57:15.889Z,1005.55
2022-12-03T00:58:15.959Z,1005.50
2022-12-03T00:59:16.043Z,1005.51
2022-12-03T01:00:16.124Z,1005.56
2022-12-03T01:01:16.284Z,1005.56
2022-12-03T01:02:16.358Z,1005.55
2022-12-03T01:03:16.380Z,1005.57
2022-12-03T01:04:16.526Z,1005.56
2022-12-03T01:05:16.602Z,1005.54
2022-12-03T01:06:16.637Z,1005.58
2022-12-03T01:07:16.712Z,1005.56
2022-12-03T01:08:16.902Z,1005.60
2022-12-03T01:09:16.917Z,1005.61
2022-12-03T01:10:16.990Z,1005.59
2022-12-03T01:11:17.066Z,1005.60
2022-12-03T01:12:17.173Z,1005.60
2022-12-03T01:13:17.252Z,1005.61
2022-12-03T01:14:17.354Z,1005.57
2022-12-03T01:15:17.395Z,1005.57
2022-12-03T01:16:17.562Z,1005.55
2022-12-03T01:17:17.563Z,1005.56
2022-12-03T01:18:17.657Z,1005.53
2022-12-03T01:19:18.059Z,1005.57
2022-12-03T01:20:17.831Z,1005.56
2022-12-03T01:21:17.912Z,1005.54
2022-12-03T01:22:17.981Z,1005.56
2022-12-03T01:23:18.060Z,1005.52
2022-12-03T01:24:18.183Z,1005.55
2022-12-03T01:25:18.247Z,1005.55
2022-12-03T01:26:18.355Z,1005.56
2022-12-03T01:27:18.439Z,1005.60
2022-12-03T01:28:18.514Z,1005.54
2022-12-03T01:29:18.622Z,1005.55
2022-12-03T01:30:18.676Z,1005.52
2022-12-03T01:31:18.798Z,1005.52
2022-12-03T01:32:18.854Z,1005.53
2022-12-03T01:33:18.933Z,1005.55
2022-12-03T01:34:19.058Z,1005.55
2022-12-03T01:35:19.099Z,1005.53
2022-12-03T01:36:19.204Z,1005.58
2022-12-03T01:37:19.285Z,1005.56
2022-12-03T01:38:19.356Z,1005.55
2022-12-03T01:39:19.454Z,1005.61
2022-12-03T01:40:19.510Z,1005.60
2022-12-03T01:41:19.588Z,1005.59
2022-12-03T01:42:19.691Z,1005.60
2022-12-03T01:43:19.773Z,1005.61
2022-12-03T01:44:19.897Z,1005.65
2022-12-03T01:45:19.934Z,1005.58
2022-12-03T01:46:20.204Z,1005.59
2022-12-03T01:47:20.125Z,1005.61
2022-12-03T01:48:20.224Z,1005.62
2022-12-03T01:49:20.327Z,1005.58
2022-12-03T01:50:20.389Z,1005.59
2022-12-03T01:51:20.477Z,1005.60
2022-12-03T01:52:20.585Z,1005.57
2022-12-03T01:53:20.671Z,1005.55
2022-12-03T01:54:20.784Z,1005.55
2022-12-03T01:55:20.845Z,1005.56
2022-12-03T01:56:20.928Z,1005.59
2022-12-03T01:57:21.008Z,1005.54
2022-12-03T01:58:21.071Z,1005.52
2022-12-03T01:59:21.166Z,1005.50
2022-12-03T02:00:21.257Z,1005.53
2022-12-03T02:01:21.401Z,1005.53
2022-12-03T02:02:21.438Z,1005.55
2022-12-03T02:03:21.496Z,1005.51
2022-12-03T02:04:21.666Z,1005.50
2022-12-03T02:05:21.676Z,1005.49
2022-12-03T02:06:21.752Z,1005.48
2022-12-03T02:07:21.825Z,1005.49
2022-12-03T02:08:21.912Z,1005.50
2022-12-03T02:09:21.986Z,1005.53
2022-12-03T02:10:22.080Z,1005.51
2022-12-03T02:11:22.132Z,1005.49
2022-12-03T02:12:22.222Z,1005.48
2022-12-03T02:13:22.289Z,1005.46
2022-12-03T02:14:22.407Z,1005.50
2022-12-03T02:15:22.460Z,1005.47
2022-12-03T02:16:22.645Z,1005.48
2022-12-03T02:17:22.611Z,1005.50
2022-12-03T02:18:22.707Z,1005.50
2022-12-03T02:19:22.790Z,1005.47
2022-12-03T02:20:22.892Z,1005.48
2022-12-03T02:21:22.951Z,1005.47
2022-12-03T02:22:23.050Z,1005.48
2022-12-03T02:23:23.110Z,1005.48
2022-12-03T02:24:23.221Z,1005.49
2022-12-03T02:25:23.273Z,1005.43
2022-12-03T02:26:23.349Z,1005.45
2022-12-03T02:27:23.542Z,1005.46
2022-12-03T02:28:23.492Z,1005.47
2022-12-03T02:29:23.564Z,1005.43
2022-12-03T02:30:23.647Z,1005.39
2022-12-03T02:31:23.770Z,1005.40
2022-12-03T02:32:23.793Z,1005.43
2022-12-03T02:33:23.877Z,1005.44
2022-12-03T02:34:24.000Z,1005.43
2022-12-03T02:35:24.065Z,1005.41
2022-12-03T02:36:24.141Z,1005.45
2022-12-03T02:37:24.212Z,1005.43
2022-12-03T02:38:24.298Z,1005.43
2022-12-03T02:39:24.377Z,1005.43
2022-12-03T02:40:24.464Z,1005.43
2022-12-03T02:41:24.542Z,1005.43
2022-12-03T02:42:24.648Z,1005.39
2022-12-03T02:43:24.727Z,1005.44
2022-12-03T02:44:24.826Z,1005.43
2022-12-03T02:45:24.890Z,1005.42
2022-12-03T02:46:25.062Z,1005.44
2022-12-03T02:47:25.069Z,1005.40
2022-12-03T02:48:25.168Z,1005.43
2022-12-03T02:49:25.291Z,1005.43
2022-12-03T02:50:25.317Z,1005.46
2022-12-03T02:51:25.377Z,1005.41
2022-12-03T02:52:25.452Z,1005.40
2022-12-03T02:53:25.524Z,1005.42
2022-12-03T02:54:25.657Z,1005.44
2022-12-03T02:55:25.693Z,1005.43
2022-12-03T02:56:25.775Z,1005.42
2022-12-03T02:57:25.845Z,1005.47
2022-12-03T02:58:25.935Z,1005.45
2022-12-03T02:59:26.026Z,1005.44
2022-12-03T03:00:26.109Z,1005.47
2022-12-03T03:01:26.219Z,1005.45
2022-12-03T03:02:26.331Z,1005.49
2022-12-03T03:03:26.332Z,1005.48
2022-12-03T03:04:26.427Z,1005.45
2022-12-03T03:05:26.478Z,1005.43
2022-12-03T03:06:26.556Z,1005.40
2022-12-03T03:07:26.698Z,1005.44
2022-12-03T03:08:26.731Z,1005.40
2022-12-03T03:09:26.809Z,1005.38
2022-12-03T03:10:26.889Z,1005.38
2022-12-03T03:11:26.946Z,1005.35
2022-12-03T03:12:27.046Z,1005.35
2022-12-03T03:13:27.138Z,1005.36
2022-12-03T03:14:27.269Z,1005.31
2022-12-03T03:15:27.296Z,1005.32
2022-12-03T03:16:27.447Z,1005.31
2022-12-03T03:17:27.421Z,1005.30
2022-12-03T03:18:27.505Z,1005.29
2022-12-03T03:19:27.609Z,1005.30
2022-12-03T03:20:27.670Z,1005.29
2022-12-03T03:21:27.730Z,1005.28
2022-12-03T03:22:27.818Z,1005.27
2022-12-03T03:23:27.879Z,1005.27
2022-12-03T03:24:27.999Z,1005.30
2022-12-03T03:25:28.037Z,1005.25
2022-12-03T03:26:28.117Z,1005.31
2022-12-03T03:27:28.189Z,1005.26
2022-12-03T03:28:28.274Z,1005.24
2022-12-03T03:29:28.356Z,1005.25
2022-12-03T03:30:28.408Z,1005.25
2022-12-03T03:31:28.524Z,1005.26
2022-12-03T03:32:28.553Z,1005.22
2022-12-03T03:33:28.635Z,1005.19
2022-12-03T03:34:28.693Z,1005.21
2022-12-03T03:35:28.780Z,1005.22
2022-12-03T03:36:28.827Z,1005.22
2022-12-03T03:37:28.927Z,1005.20
2022-12-03T03:38:28.992Z,1005.24
2022-12-03T03:39:29.088Z,1005.24
2022-12-03T03:40:29.144Z,1005.22
2022-12-03T03:41:29.240Z,1005.24
2022-12-03T03:42:29.295Z,1005.25
2022-12-03T03:43:29.392Z,1005.20
2022-12-03T03:44:29.465Z,1005.23
2022-12-03T03:45:29.937Z,1005.24
2022-12-03T03:46:29.682Z,1005.22
2022-12-03T03:47:29.697Z,1005.19
2022-12-03T03:48:29.768Z,1005.24
2022-12-03T03:49:29.865Z,1005.20
2022-12-03T03:50:29.924Z,1005.19
2022-12-03T03:51:30.043Z,1005.21
2022-12-03T03:52:30.074Z,1005.17
2022-12-03T03:53:30.148Z,1005.17
2022-12-03T03:54:30.227Z,1005.15
2022-12-03T03:55:30.302Z,1005.17
2022-12-03T03:56:30.359Z,1005.19
2022-12-03T03:57:30.469Z,1005.18
2022-12-03T03:58:30.537Z,1005.18
2022-12-03T03:59:30.635Z,1005.18
2022-12-03T04:00:30.686Z,1005.15
2022-12-03T04:01:30.840Z,1005.16
2022-12-03T04:02:30.852Z,1005.19
2022-12-03T04:03:30.932Z,1005.17
2022-12-03T04:04:31.078Z,1005.20
2022-12-03T04:05:31.087Z,1005.19
2022-12-03T04:06:31.172Z,1005.19
2022-12-03T04:07:31.325Z,1005.17
2022-12-03T04:08:31.316Z,1005.20
2022-12-03T04:09:31.427Z,1005.18
2022-12-03T04:10:31.503Z,1005.20
2022-12-03T04:11:31.582Z,1005.16
2022-12-03T04:12:31.657Z,1005.18
2022-12-03T04:13:31.729Z,1005.20
2022-12-03T04:14:31.809Z,1005.17
2022-12-03T04:15:31.880Z,1005.21
2022-12-03T04:16:31.989Z,1005.18
2022-12-03T04:17:32.059Z,1005.17
2022-12-03T04:18:32.150Z,1005.17
2022-12-03T04:19:32.246Z,1005.14
2022-12-03T04:20:32.312Z,1005.17
2022-12-03T04:21:32.419Z,1005.12
2022-12-03T04:22:32.505Z,1005.13
2022-12-03T04:23:32.591Z,1005.13
2022-12-03T04:24:32.692Z,1005.14
2022-12-03T04:25:32.768Z,1005.16
2022-12-03T04:26:32.811Z,1005.15
2022-12-03T04:27:32.916Z,1005.16
2022-12-03T04:28:32.986Z,1005.18
2022-12-03T04:29:33.095Z,1005.16
2022-12-03T04:30:33.265Z,1005.17
2022-12-03T04:31:33.252Z,1005.17
2022-12-03T04:32:33.322Z,1005.15
2022-12-03T04:33:33.403Z,1005.11
2022-12-03T04:34:33.503Z,1005.12
2022-12-03T04:35:33.671Z,1005.12
2022-12-03T04:36:33.675Z,1005.09
2022-12-03T04:37:33.748Z,1005.07
2022-12-03T04:38:33.813Z,1005.09
2022-12-03T04:39:33.933Z,1005.11
2022-12-03T04:40:34.013Z,1005.08
2022-12-03T04:41:34.105Z,1005.06
2022-12-03T04:42:34.198Z,1005.08
2022-12-03T04:43:34.287Z,1005.04
2022-12-03T04:44:34.385Z,1004.99
2022-12-03T04:45:34.505Z,1005.05
2022-12-03T04:46:34.544Z,1005.01
2022-12-03T04:47:39.715Z,1005.02
2022-12-03T04:48:34.726Z,1005.01
2022-12-03T04:49:34.820Z,1005.00
2022-12-03T04:50:34.887Z,1004.98
2022-12-03T04:51:34.972Z,1004.97
2022-12-03T04:52:35.039Z,1004.96
2022-12-03T04:53:36.347Z,1004.95
2022-12-03T04:54:35.207Z,1004.96
2022-12-03T04:55:35.283Z,1004.96
2022-12-03T04:56:35.354Z,1004.96
2022-12-03T04:57:35.440Z,1004.96
2022-12-03T04:58:35.523Z,1004.96
2022-12-03T04:59:35.636Z,1004.99
2022-12-03T05:00:35.701Z,1004.99
2022-12-03T05:01:35.858Z,1004.97
2022-12-03T05:02:35.990Z,1005.00
2022-12-03T05:03:35.951Z,1004.98
2022-12-03T05:04:36.042Z,1004.98
2022-12-03T05:05:36.094Z,1005.00
2022-12-03T05:06:36.166Z,1005.00
2022-12-03T05:07:36.348Z,1005.01
2022-12-03T05:08:36.312Z,1004.99
2022-12-03T05:09:36.436Z,1004.97
2022-12-03T05:10:36.478Z,1004.96
2022-12-03T05:11:36.552Z,1004.97
2022-12-03T05:12:36.624Z,1004.96
2022-12-03T05:13:36.680Z,1004.96
2022-12-03T05:14:36.785Z,1004.97
2022-12-03T05:15:36.892Z,1004.97
2022-12-03T05:16:37.012Z,1004.96
2022-12-03T05:17:37.024Z,1004.98
2022-12-03T05:18:37.102Z,1004.98
2022-12-03T05:19:37.212Z,1004.95
2022-12-03T05:20:37.255Z,1004.97
2022-12-03T05:21:37.374Z,1005.00
2022-12-03T05:22:37.428Z,1004.96
2022-12-03T05:23:37.533Z,1004.94
2022-12-03T05:24:37.609Z,1004.90
2022-12-03T05:25:37.695Z,1004.93
2022-12-03T05:26:37.767Z,1004.89
2022-12-03T05:27:37.872Z,1004.90
2022-12-03T05:28:37.942Z,1004.91
2022-12-03T05:29:38.051Z,1004.86
2022-12-03T05:30:38.185Z,1004.87
2022-12-03T05:31:38.161Z,1004.80
2022-12-03T05:32:38.245Z,1004.80
2022-12-03T05:33:43.732Z,1004.80
2022-12-03T05:34:38.445Z,1004.80
2022-12-03T05:35:38.519Z,1004.80
2022-12-03T05:36:38.568Z,1004.83
2022-12-03T05:37:38.642Z,1004.80
2022-12-03T05:38:38.707Z,1004.78
2022-12-03T05:39:38.806Z,1004.81
2022-12-03T05:40:38.849Z,1004.81
2022-12-03T05:41:38.940Z,1004.81
2022-12-03T05:42:39.029Z,1004.84
2022-12-03T05:43:39.122Z,1004.80
2022-12-03T05:44:39.247Z,1004.81
2022-12-03T05:45:39.288Z,1004.83
2022-12-03T05:46:39.441Z,1004.84
2022-12-03T05:47:39.470Z,1004.80
2022-12-03T05:48:39.545Z,1004.88
2022-12-03T05:49:39.656Z,1004.87
2022-12-03T05:50:39.732Z,1004.86
2022-12-03T05:51:39.826Z,1004.85
2022-12-03T05:52:39.899Z,1004.83
2022-12-03T05:53:40.008Z,1004.82
2022-12-03T05:54:40.105Z,1004.84
2022-12-03T05:55:40.151Z,1004.82
2022-12-03T05:56:40.229Z,1004.86
2022-12-03T05:57:40.307Z,1004.86
2022-12-03T05:58:40.366Z,1004.84
2022-12-03T05:59:40.454Z,1004.85
2022-12-03T06:00:42.883Z,1004.87
2022-12-03T06:01:40.612Z,1004.87
2022-12-03T06:02:40.854Z,1004.85
2022-12-03T06:03:40.997Z,1004.86
2022-12-03T06:04:40.902Z,1004.84
2022-12-03T06:05:40.965Z,1004.87
2022-12-03T06:06:41.024Z,1004.85
2022-12-03T06:07:41.188Z,1004.85
2022-12-03T06:08:41.206Z,1004.84
2022-12-03T06:09:41.316Z,1004.82
2022-12-03T06:10:41.372Z,1004.83
2022-12-03T06:11:41.458Z,1004.85
2022-12-03T06:12:41.541Z,1004.85
2022-12-03T06:13:41.648Z,1004.84
2022-12-03T06:14:41.751Z,1004.84
2022-12-03T06:15:43.964Z,1004.82
2022-12-03T06:16:41.920Z,1004.86
2022-12-03T06:17:41.977Z,1004.82
2022-12-03T06:18:42.033Z,1004.83
2022-12-03T06:19:42.123Z,1004.81
2022-12-03T06:20:42.185Z,1004.83
2022-12-03T06:21:42.258Z,1004.84
2022-12-03T06:22:42.335Z,1004.83
2022-12-03T06:23:42.432Z,1004.80
2022-12-03T06:24:42.512Z,1004.83
2022-12-03T06:25:42.605Z,1004.87
2022-12-03T06:26:42.696Z,1004.83
2022-12-03T06:27:42.801Z,1004.85
2022-12-03T06:28:42.892Z,1004.84
2022-12-03T06:29:43.025Z,1004.84
2022-12-03T06:30:43.221Z,1004.86
2022-12-03T06:31:43.222Z,1004.86
2022-12-03T06:32:43.214Z,1004.79
2022-12-03T06:33:43.312Z,1004.81
2022-12-03T06:34:43.385Z,1004.77
2022-12-03T06:35:43.462Z,1004.87
2022-12-03T06:36:43.543Z,1004.84
2022-12-03T06:37:43.621Z,1004.85
2022-12-03T06:38:43.711Z,1004.82
2022-12-03T06:39:43.808Z,1004.83
2022-12-03T06:40:43.871Z,1004.83
2022-12-03T06:41:43.951Z,1004.82
2022-12-03T06:42:44.023Z,1004.81
2022-12-03T06:43:44.099Z,1004.80
2022-12-03T06:44:44.183Z,1004.79
2022-12-03T06:45:47.692Z,1004.83
2022-12-03T06:46:44.470Z,1004.82
2022-12-03T06:47:44.404Z,1004.81
2022-12-03T06:48:44.484Z,1004.81
2022-12-03T06:49:44.613Z,1004.85
2022-12-03T06:50:44.687Z,1004.83
2022-12-03T06:51:44.772Z,1004.84
2022-12-03T06:52:44.865Z,1004.83
2022-12-03T06:53:44.938Z,1004.84
2022-12-03T06:54:45.065Z,1004.82
2022-12-03T06:55:45.123Z,1004.85
2022-12-03T06:56:45.759Z,1004.85
2022-12-03T06:57:45.291Z,1004.80
2022-12-03T06:58:45.354Z,1004.83
2022-12-03T06:59:45.461Z,1004.80
2022-12-03T07:00:45.508Z,1004.79
2022-12-03T07:01:45.673Z,1004.78
2022-12-03T07:02:45.719Z,1004.83
2022-12-03T07:03:45.778Z,1004.77
2022-12-03T07:04:46.580Z,1004.78
2022-12-03T07:05:45.927Z,1004.85
2022-12-03T07:06:45.992Z,1004.80
2022-12-03T07:07:46.113Z,1004.80
2022-12-03T07:08:46.153Z,1004.81
2022-12-03T07:09:46.252Z,1004.84
2022-12-03T07:10:46.304Z,1004.85
2022-12-03T07:11:46.399Z,1004.85
2022-12-03T07:12:46.489Z,1004.84
2022-12-03T07:13:46.591Z,1004.85
2022-12-03T07:14:46.729Z,1004.83
2022-12-03T07:15:46.831Z,1004.86
2022-12-03T07:16:46.850Z,1004.85
2022-12-03T07:17:46.955Z,1004.84
2022-12-03T07:18:47.040Z,1004.82
2022-12-03T07:19:47.149Z,1004.79
2022-12-03T07:20:47.208Z,1004.84
2022-12-03T07:21:47.301Z,1004.85
2022-12-03T07:22:47.380Z,1004.87
2022-12-03T07:23:47.456Z,1004.81
2022-12-03T07:24:47.523Z,1004.86
2022-12-03T07:25:47.617Z,1004.85
2022-12-03T07:26:47.668Z,1004.84
2022-12-03T07:27:47.759Z,1004.86
2022-12-03T07:28:47.829Z,1004.87
2022-12-03T07:29:47.925Z,1004.85
2022-12-03T07:30:47.999Z,1004.87
2022-12-03T07:31:48.196Z,1004.82
2022-12-03T07:32:48.140Z,1004.83
2022-12-03T07:33:48.239Z,1004.82
2022-12-03T07:34:48.330Z,1004.80
2022-12-03T07:35:48.422Z,1004.84
2022-12-03T07:36:48.486Z,1004.81
2022-12-03T07:37:48.569Z,1004.83
2022-12-03T07:38:48.639Z,1004.79
2022-12-03T07:39:48.768Z,1004.81
2022-12-03T07:40:48.801Z,1004.80
2022-12-03T07:41:48.904Z,1004.82
2022-12-03T07:42:48.965Z,1004.80
2022-12-03T07:43:49.058Z,1004.78
2022-12-03T07:44:49.134Z,1004.81
2022-12-03T07:45:49.200Z,1004.79
2022-12-03T07:46:49.369Z,1004.81
2022-12-03T07:47:49.353Z,1004.80
2022-12-03T07:48:49.415Z,1004.81
2022-12-03T07:49:49.522Z,1004.79
2022-12-03T07:50:49.594Z,1004.80
2022-12-03T07:51:49.676Z,1004.78
2022-12-03T07:52:49.768Z,1004.80
2022-12-03T07:53:49.851Z,1004.78
2022-12-03T07:54:49.963Z,1004.79
2022-12-03T07:55:50.023Z,1004.80
2022-12-03T07:56:50.125Z,1004.83
2022-12-03T07:57:50.210Z,1004.83
2022-12-03T07:58:50.292Z,1004.81
2022-12-03T07:59:50.389Z,1004.81
2022-12-03T08:00:50.507Z,1004.81
2022-12-03T08:01:50.596Z,1004.80
2022-12-03T08:02:50.634Z,1004.79
2022-12-03T08:03:50.687Z,1004.80
2022-12-03T08:04:51.062Z,1004.80
2022-12-03T08:05:50.828Z,1004.82
2022-12-03T08:06:50.927Z,1004.78
2022-12-03T08:07:51.108Z,1004.83
2022-12-03T08:08:51.102Z,1004.80
2022-12-03T08:09:51.169Z,1004.83
2022-12-03T08:10:51.251Z,1004.85
2022-12-03T08:11:51.310Z,1004.84
2022-12-03T08:12:51.385Z,1004.85
2022-12-03T08:13:51.448Z,1004.87
2022-12-03T08:14:51.831Z,1004.88
2022-12-03T08:15:51.605Z,1004.87
2022-12-03T08:16:51.840Z,1004.89
2022-12-03T08:17:51.793Z,1004.91
2022-12-03T08:18:51.880Z,1004.92
2022-12-03T08:19:51.962Z,1004.95
2022-12-03T08:20:52.056Z,1004.93
2022-12-03T08:21:55.285Z,1004.93
2022-12-03T08:22:52.205Z,1004.95
2022-12-03T08:23:52.266Z,1004.96
2022-12-03T08:24:52.736Z,1004.95
2022-12-03T08:25:52.432Z,1004.96
2022-12-03T08:26:52.507Z,1004.94
2022-12-03T08:27:52.572Z,1004.92
2022-12-03T08:28:52.646Z,1004.92
2022-12-03T08:29:52.756Z,1004.94
2022-12-03T08:30:52.825Z,1004.92
2022-12-03T08:31:52.957Z,1004.95
2022-12-03T08:32:53.002Z,1004.92
2022-12-03T08:33:53.054Z,1004.97
2022-12-03T08:34:53.397Z,1004.97
2022-12-03T08:35:53.225Z,1004.98
2022-12-03T08:36:53.303Z,1004.96
2022-12-03T08:37:53.358Z,1004.95
2022-12-03T08:38:53.438Z,1004.97
2022-12-03T08:39:53.526Z,1005.01
2022-12-03T08:40:53.579Z,1004.97
2022-12-03T08:41:53.640Z,1005.03
2022-12-03T08:42:53.730Z,1004.97
2022-12-03T08:43:53.788Z,1005.00
2022-12-03T08:44:54.257Z,1005.00
2022-12-03T08:45:54.003Z,1004.98
2022-12-03T08:46:54.054Z,1004.96
2022-12-03T08:47:54.129Z,1004.94
2022-12-03T08:48:54.217Z,1004.92
2022-12-03T08:49:54.326Z,1004.90
2022-12-03T08:50:54.385Z,1004.91
2022-12-03T08:51:54.465Z,1004.94
2022-12-03T08:52:54.555Z,1004.95
2022-12-03T08:54:01.149Z,1004.94
2022-12-03T08:54:55.207Z,1004.94
2022-12-03T08:55:54.778Z,1004.95
2022-12-03T08:56:54.869Z,1004.91
2022-12-03T08:57:54.952Z,1004.90
2022-12-03T08:58:55.047Z,1004.89
2022-12-03T08:59:55.130Z,1004.88
2022-12-03T09:00:55.240Z,1004.91
2022-12-03T09:01:55.274Z,1004.89
2022-12-03T09:02:55.374Z,1004.91
2022-12-03T09:03:55.496Z,1004.91
2022-12-03T09:04:55.842Z,1004.91
2022-12-03T09:05:55.599Z,1004.92
2022-12-03T09:06:55.679Z,1004.92
2022-12-03T09:07:55.784Z,1004.92
2022-12-03T09:08:55.843Z,1004.90
2022-12-03T09:09:55.913Z,1004.89
2022-12-03T09:10:55.980Z,1004.93
2022-12-03T09:11:56.061Z,1004.90
2022-12-03T09:12:56.167Z,1004.91
2022-12-03T09:13:56.254Z,1004.85
2022-12-03T09:14:56.637Z,1004.83
2022-12-03T09:15:56.423Z,1004.83
2022-12-03T09:16:56.694Z,1004.86
2022-12-03T09:17:56.560Z,1004.84
2022-12-03T09:18:56.658Z,1004.86
2022-12-03T09:19:56.727Z,1004.86
2022-12-03T09:20:56.785Z,1004.87
2022-12-03T09:21:56.870Z,1004.85
2022-12-03T09:22:56.952Z,1004.86
2022-12-03T09:23:57.006Z,1004.86
2022-12-03T09:24:57.091Z,1004.87
2022-12-03T09:25:57.141Z,1004.84
2022-12-03T09:26:57.249Z,1004.83
2022-12-03T09:27:57.319Z,1004.85
2022-12-03T09:28:57.400Z,1004.86
2022-12-03T09:29:57.479Z,1004.86
2022-12-03T09:30:57.543Z,1004.86
2022-12-03T09:31:57.705Z,1004.87
2022-12-03T09:32:57.721Z,1004.89
2022-12-03T09:33:57.806Z,1004.86
2022-12-03T09:34:57.898Z,1004.86
2022-12-03T09:35:57.966Z,1004.85
2022-12-03T09:36:58.072Z,1004.84
2022-12-03T09:37:58.139Z,1004.85
2022-12-03T09:38:58.220Z,1004.85
2022-12-03T09:39:58.321Z,1004.81
2022-12-03T09:40:58.380Z,1004.83
2022-12-03T09:41:58.433Z,1004.81
2022-12-03T09:42:58.540Z,1004.83
2022-12-03T09:44:07.003Z,1004.92
2022-12-03T09:44:58.709Z,1004.84
2022-12-03T09:45:58.824Z,1004.86
2022-12-03T09:46:58.875Z,1004.84
2022-12-03T09:47:58.964Z,1004.82
2022-12-03T09:48:59.038Z,1004.81
2022-12-03T09:49:59.151Z,1004.79
2022-12-03T09:50:59.207Z,1004.81
2022-12-03T09:51:59.280Z,1004.78
2022-12-03T09:52:59.352Z,1004.77
2022-12-03T09:53:59.408Z,1004.81
2022-12-03T09:54:59.537Z,1004.80
2022-12-03T09:55:59.593Z,1004.73
2022-12-03T09:56:59.683Z,1004.67
2022-12-03T09:57:59.761Z,1004.69
2022-12-03T09:58:59.847Z,1004.68
2022-12-03T09:59:59.947Z,1004.69
2022-12-03T10:01:00.053Z,1004.68
2022-12-03T10:02:00.245Z,1004.71
2022-12-03T10:03:00.173Z,1004.70
2022-12-03T10:04:00.326Z,1004.69
2022-12-03T10:05:00.469Z,1004.69
2022-12-03T10:06:00.409Z,1004.70
2022-12-03T10:07:00.475Z,1004.71
2022-12-03T10:08:00.658Z,1004.68
2022-12-03T10:09:00.646Z,1004.66
2022-12-03T10:10:00.749Z,1004.66
2022-12-03T10:11:00.824Z,1004.66
2022-12-03T10:12:00.889Z,1004.66
2022-12-03T10:13:00.997Z,1004.65
2022-12-03T10:14:01.053Z,1004.65
2022-12-03T10:15:01.167Z,1004.65
2022-12-03T10:16:01.197Z,1004.68
2022-12-03T10:17:01.425Z,1004.64
2022-12-03T10:18:01.372Z,1004.63
2022-12-03T10:19:01.438Z,1004.64
2022-12-03T10:20:01.519Z,1004.62
2022-12-03T10:21:01.600Z,1004.64
2022-12-03T10:22:01.664Z,1004.61
2022-12-03T10:23:01.745Z,1004.58
2022-12-03T10:24:01.835Z,1004.59
2022-12-03T10:25:01.954Z,1004.57
2022-12-03T10:26:02.014Z,1004.54
2022-12-03T10:27:02.102Z,1004.55
2022-12-03T10:28:02.153Z,1004.56
2022-12-03T10:29:02.244Z,1004.56
2022-12-03T10:30:02.344Z,1004.54
2022-12-03T10:31:02.534Z,1004.50
2022-12-03T10:32:02.501Z,1004.50
2022-12-03T10:33:02.692Z,1004.52
2022-12-03T10:34:02.663Z,1004.47
2022-12-03T10:35:02.778Z,1004.47
2022-12-03T10:36:02.827Z,1004.47
2022-12-03T10:37:02.929Z,1004.43
2022-12-03T10:38:03.023Z,1004.40
2022-12-03T10:39:03.079Z,1004.38
2022-12-03T10:40:03.183Z,1004.40
2022-12-03T10:41:03.224Z,1004.39
2022-12-03T10:42:03.297Z,1004.38
2022-12-03T10:43:03.362Z,1004.36
2022-12-03T10:44:03.438Z,1004.36
2022-12-03T10:45:03.547Z,1004.33
2022-12-03T10:46:04.676Z,1004.31
2022-12-03T10:47:03.777Z,1004.30
2022-12-03T10:48:03.758Z,1004.21
2022-12-03T10:49:03.839Z,1004.21
2022-12-03T10:50:03.955Z,1004.19
2022-12-03T10:51:04.022Z,1004.22
2022-12-03T10:52:04.105Z,1004.17
2022-12-03T10:53:04.188Z,1004.20
2022-12-03T10:54:04.300Z,1004.20
2022-12-03T10:55:04.380Z,1004.18
2022-12-03T10:56:04.459Z,1004.13
2022-12-03T10:57:04.516Z,1004.13
2022-12-03T10:58:04.586Z,1004.10
2022-12-03T10:59:04.674Z,1004.11
2022-12-03T11:00:04.774Z,1004.12
2022-12-03T11:01:04.914Z,1004.05
2022-12-03T11:02:05.125Z,1004.10
2022-12-03T11:03:05.051Z,1004.03
2022-12-03T11:04:05.213Z,1004.04
2022-12-03T11:05:05.213Z,1004.06
2022-12-03T11:06:05.277Z,1004.06
2022-12-03T11:07:05.354Z,1004.03
2022-12-03T11:08:05.554Z,1004.00
2022-12-03T11:09:09.147Z,1004.02
2022-12-03T11:10:05.629Z,1004.01
2022-12-03T11:11:05.682Z,1004.01
2022-12-03T11:12:05.754Z,1004.00
2022-12-03T11:13:05.831Z,1004.02
2022-12-03T11:14:05.900Z,1003.99
2022-12-03T11:15:06.002Z,1003.97
2022-12-03T11:16:06.146Z,1003.95
2022-12-03T11:17:06.128Z,1003.94
2022-12-03T11:18:06.200Z,1003.91
2022-12-03T11:19:06.272Z,1003.92
2022-12-03T11:20:06.398Z,1003.91
2022-12-03T11:21:06.441Z,1003.90
2022-12-03T11:22:06.518Z,1003.90
2022-12-03T11:23:06.590Z,1003.87
2022-12-03T11:24:06.666Z,1003.84
2022-12-03T11:25:06.758Z,1003.81
2022-12-03T11:26:06.825Z,1003.77
2022-12-03T11:27:06.914Z,1003.77
2022-12-03T11:28:06.990Z,1003.75
2022-12-03T11:29:07.069Z,1003.72
2022-12-03T11:30:07.163Z,1003.77
2022-12-03T11:31:07.224Z,1003.72
2022-12-03T11:32:07.279Z,1003.72
2022-12-03T11:33:07.370Z,1003.71
2022-12-03T11:34:07.441Z,1003.71
2022-12-03T11:35:07.531Z,1003.73
2022-12-03T11:36:07.598Z,1003.72
2022-12-03T11:37:07.673Z,1003.70
2022-12-03T11:38:07.743Z,1003.63
2022-12-03T11:39:07.823Z,1003.66
2022-12-03T11:40:07.914Z,1003.67
2022-12-03T11:41:07.951Z,1003.68
2022-12-03T11:42:08.037Z,1003.64
2022-12-03T11:43:08.109Z,1003.71
2022-12-03T11:44:08.225Z,1003.72
2022-12-03T11:45:08.296Z,1003.71
2022-12-03T11:46:08.457Z,1003.70
2022-12-03T11:47:08.477Z,1003.71
2022-12-03T11:48:08.533Z,1003.70
2022-12-03T11:49:08.611Z,1003.69
2022-12-03T11:50:08.734Z,1003.70
2022-12-03T11:51:08.790Z,1003.71
2022-12-03T11:52:08.862Z,1003.66
2022-12-03T11:53:08.939Z,1003.68
2022-12-03T11:54:09.012Z,1003.66
2022-12-03T11:55:09.125Z,1003.63
2022-12-03T11:56:09.377Z,1003.64
2022-12-03T11:57:09.234Z,1003.60
2022-12-03T11:58:09.304Z,1003.62
2022-12-03T11:59:09.383Z,1003.57
2022-12-03T12:00:09.485Z,1003.57
2022-12-03T12:01:09.524Z,1003.53
2022-12-03T12:02:09.596Z,1003.55
2022-12-03T12:03:09.816Z,1003.53
2022-12-03T12:04:09.873Z,1003.54
2022-12-03T12:05:09.870Z,1003.52
2022-12-03T12:06:09.912Z,1003.54